Latest Weather Observations for Tocal

IDN60801

Issued at 2:32 pm EDT Monday 27 January 2020 (issued every 10 minutes, with the page automatically refreshed every 10 minutes)

About weather observations | Map of weather stations | Latest weather observations for NSW | Other Formats
Station Details ID: 061250 Name: TOCAL AWS Lat: -32.63 Lon: 151.59 Height: 30.0 m
Data from the previous 72 hours. | See also: Recent months at Tocal
Date/Time
EDT
Temp
°C
App
Temp
°C
Dew
Point
°C
Rel
Hum
%
Delta-T
°C
Wind Press
QNH
hPa
Press
MSL
hPa
Rain since
9am
mm
Dir  Spd
km/h
Gust
km/h
Spd
kts
Gust
kts
27/02:30pm 30.6 32.8 21.9 59 5.9 ESE 13 20 7 11 - - 0.0
27/02:00pm 30.3 33.4 22.2 62 5.5 SSE 9 17 5 9 - - 0.0
27/01:30pm 29.5 32.8 22.5 66 4.8 SSE 9 15 5 8 - - 0.0
27/01:00pm 28.5 32.2 21.5 66 4.7 ESE 4 9 2 5 - - 0.0
27/12:30pm 28.1 31.3 21.6 68 4.4 SSW 7 9 4 5 - - 0.0
27/12:00pm 27.3 30.5 21.3 69 4.0 SSW 6 7 3 4 - - 0.0
27/11:30am 26.7 30.1 21.7 74 3.3 E 6 9 3 5 - - 0.0
27/11:00am 26.2 29.6 21.6 76 3.1 NE 6 7 3 4 - - 0.0
27/10:30am 25.4 28.6 21.7 80 2.5 NE 7 9 4 5 - - 0.0
27/10:00am 24.9 27.6 21.4 81 2.3 NE 9 11 5 6 - - 0.0
27/09:30am 24.1 26.7 21.2 84 1.9 NE 9 11 5 6 - - 0.0
27/09:00am 23.6 26.6 21.3 87 1.5 NE 7 7 4 4 - - 38.2
27/08:30am 22.8 25.8 20.9 89 1.2 NE 6 7 3 4 - - 38.2
27/08:00am 22.4 26.2 20.9 91 1.0 NE 2 7 1 4 - - 38.2
27/07:30am 21.8 25.3 20.3 91 1.0 NW 2 7 1 4 - - 38.2
27/07:00am 21.6 25.5 20.4 93 0.8 CALM 0 0 0 0 - - 38.2
27/06:30am 21.3 25.0 19.9 92 0.9 CALM 0 0 0 0 - - 38.2
27/06:00am 21.2 24.9 20.0 93 0.8 CALM 0 4 0 2 - - 38.2
27/05:30am 21.0 24.6 19.8 93 0.8 CALM 0 0 0 0 - - 38.2
27/05:00am 21.4 25.1 20.0 92 0.9 CALM 0 0 0 0 - - 38.2
27/04:30am 21.6 25.4 20.2 92 0.9 CALM 0 0 0 0 - - 38.2
27/04:00am 21.4 25.1 19.9 91 1.0 CALM 0 0 0 0 - - 38.2
27/03:30am 21.7 25.4 20.0 90 1.1 CALM 0 0 0 0 - - 38.2
27/03:00am 21.9 24.4 20.2 90 1.1 S 7 9 4 5 - - 38.2
27/02:30am 22.5 26.2 19.9 85 1.7 CALM 0 0 0 0 - - 38.2
27/02:00am 22.7 25.6 19.9 84 1.8 WSW 4 6 2 3 - - 38.2
27/01:30am 23.3 26.7 20.1 82 2.1 ESE 2 7 1 4 - - 38.2
27/01:00am 23.0 25.6 20.0 83 1.9 SSE 6 7 3 4 - - 38.2
27/12:30am 23.9 26.0 20.2 80 2.4 NNE 9 15 5 8 - - 38.2
27/12:00am 23.4 25.1 20.2 82 2.1 ENE 11 13 6 7 - - 38.2
 
Date/Time
EDT
Temp
°C
App
Temp
°C
Dew
Point
°C
Rel
Hum
%
Delta-T
°C
Wind Press
QNH
hPa
Press
MSL
hPa
Rain since
9am
mm
Dir  Spd
km/h
Gust
km/h
Spd
kts
Gust
kts
26/11:30pm 23.4 25.6 20.5 84 1.9 NNE 9 11 5 6 - - 38.2
26/11:00pm 23.2 25.8 20.5 85 1.8 NE 7 11 4 6 - - 38.2
26/10:30pm 23.4 27.0 20.5 84 1.9 NW 2 9 1 5 - - 38.2
26/10:00pm 23.5 26.0 20.2 82 2.1 S 7 11 4 6 - - 38.2
26/09:30pm 23.7 25.9 20.4 82 2.1 NNW 9 13 5 7 - - 38.2
26/09:00pm 24.4 24.9 20.1 77 2.8 SSW 17 32 9 17 - - 38.2
26/08:30pm 24.7 26.7 20.0 75 3.0 E 9 15 5 8 - - 38.2
26/08:00pm 25.4 28.4 20.0 72 3.5 ESE 4 11 2 6 - - 38.2
26/07:30pm 25.6 25.7 20.4 73 3.4 N 20 30 11 16 - - 38.2
26/07:00pm 23.2 22.6 20.5 85 1.8 NE 24 33 13 18 - - 38.0
26/06:56pm 22.8 23.0 20.5 87 1.5 ENE 20 33 11 18 - - 38.0
26/06:30pm 21.5 24.4 20.7 95 0.5 NE 6 15 3 8 - - 38.0
26/06:00pm 21.3 22.7 20.3 94 0.6 E 13 19 7 10 - - 37.4
26/05:30pm 22.6 21.9 21.1 91 1.0 E 26 44 14 24 - - 22.8
26/05:25pm 22.3 19.8 20.9 92 0.9 ENE 35 54 19 29 - - 20.4
26/05:00pm 22.6 18.3 20.3 87 1.5 NE 43 61 23 33 - - 7.6
26/04:56pm 23.7 19.4 19.6 78 2.6 NE 41 61 22 33 - - 3.6
26/04:50pm 26.7 22.9 20.5 69 4.1 NE 41 54 22 29 - - 0.0
26/04:38pm 31.8 30.3 19.4 47 8.1 ENE 26 54 14 29 - - 0.0
26/04:30pm 36.0 36.6 20.3 40 10.5 E 17 30 9 16 - - 0.0
26/04:00pm 37.0 37.9 17.6 32 12.6 W 9 19 5 10 - - 0.0
26/03:30pm 36.3 36.8 17.4 32 12.2 SW 11 22 6 12 - - 0.0
26/03:00pm 37.9 38.5 17.8 30 13.1 W 11 20 6 11 - - 0.0
26/02:30pm 36.8 36.9 18.4 34 12.1 WSW 15 32 8 17 - - 0.0
26/02:00pm 37.4 38.1 18.9 34 12.2 W 13 26 7 14 - - 0.0
26/01:30pm 36.1 36.2 19.1 36 11.2 NNW 17 28 9 15 - - 0.0
26/01:00pm 35.7 36.6 19.2 38 10.9 WNW 13 22 7 12 - - 0.0
26/12:30pm 35.7 35.4 19.2 38 10.9 NW 19 32 10 17 - - 0.0
26/12:00pm 35.3 36.4 19.6 39 10.4 NW 13 26 7 14 - - 0.0
26/11:30am 33.5 34.5 20.3 46 8.8 NNW 15 24 8 13 - - 0.0
26/11:00am 32.9 33.9 19.4 45 8.9 WNW 13 22 7 12 - - 0.0
26/10:30am 32.8 33.8 20.3 47 8.3 NW 15 30 8 16 - - 0.0
26/10:00am 31.5 32.0 20.1 50 7.5 WNW 17 28 9 15 - - 0.0
26/09:30am 30.3 31.7 21.1 58 6.2 WNW 15 22 8 12 - - 0.0
26/09:00am 28.2 32.5 23.6 76 3.2 SE 7 13 4 7 - - 0.4
26/08:30am 26.9 30.7 23.4 81 2.4 ENE 9 11 5 6 - - 0.4
26/08:00am 25.0 30.2 22.9 88 1.4 CALM 0 0 0 0 - - 0.4
26/07:30am 24.1 29.3 22.9 93 0.8 CALM 0 0 0 0 - - 0.4
26/07:00am 23.4 28.2 22.2 93 0.8 CALM 0 6 0 3 - - 0.4
26/06:30am 22.9 27.5 21.7 93 0.8 CALM 0 0 0 0 - - 0.4
26/06:00am 23.1 27.8 21.9 93 0.8 CALM 0 0 0 0 - - 0.4
26/05:30am 23.4 27.1 22.2 93 0.8 WSW 6 7 3 4 - - 0.4
26/05:00am 23.5 28.3 22.1 92 0.9 CALM 0 0 0 0 - - 0.4
26/04:30am 23.7 28.6 22.3 92 0.9 CALM 0 0 0 0 - - 0.4
26/04:00am 23.8 27.5 22.6 93 0.8 WNW 7 11 4 6 - - 0.4
26/03:30am 23.7 27.3 22.3 92 0.9 W 7 9 4 5 - - 0.4
26/03:00am 23.8 27.6 22.4 92 0.9 ESE 6 7 3 4 - - 0.4
26/02:30am 23.9 27.5 22.3 91 1.1 ESE 7 9 4 5 - - 0.4
26/02:00am 24.2 28.1 22.5 90 1.1 WSW 6 7 3 4 - - 0.4
26/01:30am 24.4 29.5 22.7 90 1.1 CALM 0 0 0 0 - - 0.4
26/01:00am 24.5 29.7 22.8 90 1.1 CALM 0 0 0 0 - - 0.4
26/12:30am 24.6 29.3 22.7 89 1.3 W 2 6 1 3 - - 0.4
26/12:00am 24.8 28.9 22.9 89 1.3 SSE 6 7 3 4 - - 0.4
 
Date/Time
EDT
Temp
°C
App
Temp
°C
Dew
Point
°C
Rel
Hum
%
Delta-T
°C
Wind Press
QNH
hPa
Press
MSL
hPa
Rain since
9am
mm
Dir  Spd
km/h
Gust
km/h
Spd
kts
Gust
kts
25/11:30pm 25.1 28.6 22.8 87 1.6 SSE 9 11 5 6 - - 0.4
25/11:00pm 25.4 29.1 22.5 84 2.0 ESE 7 9 4 5 - - 0.4
25/10:30pm 25.5 29.3 22.4 83 2.1 NW 6 7 3 4 - - 0.4
25/10:00pm 26.0 29.9 22.5 81 2.4 SSW 6 7 3 4 - - 0.4
25/09:30pm 26.4 30.2 22.7 80 2.5 SSW 7 11 4 6 - - 0.4
25/09:00pm 26.6 31.2 22.4 78 2.8 W 2 6 1 3 - - 0.4
25/08:30pm 26.7 30.4 22.3 77 3.0 SSE 6 11 3 6 - - 0.4
25/08:00pm 27.3 30.6 22.5 75 3.2 SSE 9 13 5 7 - - 0.4
25/07:30pm 27.8 31.1 22.5 73 3.6 SE 9 15 5 8 - - 0.4
25/07:00pm 28.2 30.8 22.7 72 3.7 SE 13 20 7 11 - - 0.4
25/06:30pm 28.6 30.8 22.6 70 4.1 SE 15 22 8 12 - - 0.4
25/06:00pm 29.0 30.6 22.2 66 4.6 SE 17 30 9 16 - - 0.4
25/05:30pm 29.6 30.7 22.3 65 5.0 SE 20 33 11 18 - - 0.4
25/05:00pm 30.8 32.5 22.4 61 5.7 SSE 17 30 9 16 - - 0.4
25/04:30pm 31.0 32.7 22.3 60 5.9 SE 17 28 9 15 - - 0.4
25/04:00pm 31.5 33.4 22.8 60 6.0 S 17 28 9 15 - - 0.4
25/03:30pm 31.2 33.9 22.2 58 6.1 SSE 11 22 6 12 - - 0.4
25/03:00pm 31.4 33.9 21.8 56 6.5 SE 11 20 6 11 - - 0.4
25/02:30pm 30.7 32.9 22.6 62 5.5 SSE 15 20 8 11 - - 0.4
25/02:00pm 29.5 31.6 22.5 66 4.8 SE 15 22 8 12 - - 0.4
25/01:30pm 28.5 31.3 23.0 72 3.8 SE 13 20 7 11 - - 0.4
25/01:00pm 27.5 30.2 22.2 73 3.6 S 11 17 6 9 - - 0.4
25/12:30pm 27.4 30.9 22.1 73 3.6 SE 7 13 4 7 - - 0.4
25/12:00pm 26.8 31.6 22.8 79 2.7 ESE 2 7 1 4 - - 0.4
25/11:30am 26.0 29.3 22.5 81 2.4 SSE 9 13 5 7 - - 0.4
25/11:00am 25.5 29.1 23.0 86 1.7 S 9 15 5 8 - - 0.4
25/10:30am 24.5 28.0 22.8 90 1.1 SSW 9 11 5 6 - - 0.4
25/10:00am 24.1 27.6 22.9 93 0.8 S 9 11 5 6 - - 0.4
25/09:30am 23.7 26.8 22.9 95 0.5 SE 11 13 6 7 - - 0.4
25/09:00am 23.3 26.5 22.3 94 0.7 S 9 13 5 7 - - 0.2
25/08:30am 23.1 26.1 21.9 93 0.8 S 9 13 5 7 - - 0.0
25/08:00am 23.3 26.6 21.9 92 0.9 SSE 7 9 4 5 - - 0.0
25/07:30am 24.1 26.7 21.2 84 1.9 SSE 9 17 5 9 - - 0.0
25/07:00am 24.3 27.6 21.4 84 1.9 SSE 6 9 3 5 - - 0.0
25/06:30am 24.2 27.2 21.3 84 1.9 SSE 7 9 4 5 - - 0.0
25/06:00am 24.2 27.4 21.3 84 1.9 SE 6 9 3 5 - - 0.0
25/05:30am 24.1 27.1 21.2 84 1.9 SE 7 11 4 6 - - 0.0
25/05:00am 24.2 27.1 21.1 83 2.0 SSE 7 9 4 5 - - 0.0
25/04:30am 24.3 27.4 21.0 82 2.2 SSW 6 9 3 5 - - 0.0
25/04:00am 24.3 27.4 21.0 82 2.2 S 6 7 3 4 - - 0.0
25/03:30am 24.3 27.6 20.8 81 2.3 S 4 7 2 4 - - 0.0
25/03:00am 24.3 28.0 20.8 81 2.3 SE 2 7 1 4 - - 0.0
25/02:30am 24.3 27.0 20.6 80 2.4 SE 7 9 4 5 - - 0.0
25/02:00am 24.4 27.3 20.7 80 2.4 SSE 6 9 3 5 - - 0.0
25/01:30am 24.4 27.2 20.9 81 2.3 S 7 9 4 5 - - 0.0
25/01:00am 24.3 27.4 21.0 82 2.2 SSE 6 11 3 6 - - 0.0
25/12:30am 24.2 27.1 21.1 83 2.0 S 7 9 4 5 - - 0.0
25/12:00am 24.1 26.6 21.0 83 2.0 S 9 13 5 7 - - 0.0
 
Date/Time
EDT
Temp
°C
App
Temp
°C
Dew
Point
°C
Rel
Hum
%
Delta-T
°C
Wind Press
QNH
hPa
Press
MSL
hPa
Rain since
9am
mm
Dir  Spd
km/h
Gust
km/h
Spd
kts
Gust
kts
24/11:30pm 24.2 26.6 20.9 82 2.2 S 9 13 5 7 - - 0.0
24/11:00pm 24.3 27.1 20.8 81 2.3 SSW 7 7 4 4 - - 0.0
24/10:30pm 24.6 27.4 20.9 80 2.4 SSE 7 9 4 5 - - 0.0
24/10:00pm 24.8 27.2 20.9 79 2.6 ESE 9 11 5 6 - - 0.0
24/09:30pm 24.7 27.0 20.6 78 2.7 ESE 9 15 5 8 - - 0.0
24/09:00pm 24.9 27.0 20.2 75 3.1 ESE 9 17 5 9 - - 0.0
24/08:30pm 25.2 27.1 19.8 72 3.5 ESE 9 15 5 8 - - 0.0
24/08:00pm 25.5 27.1 19.9 71 3.6 E 11 15 6 8 - - 0.0
24/07:30pm 25.9 27.1 20.0 70 3.8 ESE 13 19 7 10 - - 0.0
24/07:00pm 26.0 27.0 20.3 71 3.7 ESE 15 20 8 11 - - 0.0
24/06:30pm 26.7 28.4 21.0 71 3.8 E 13 19 7 10 - - 0.0
24/06:00pm 25.9 27.6 20.2 71 3.7 ESE 11 19 6 10 - - 0.0
24/05:30pm 25.7 26.9 19.8 70 3.8 ESE 13 17 7 9 - - 0.0
24/05:00pm 26.1 27.0 19.2 65 4.4 ESE 13 17 7 9 - - 0.0
24/04:30pm 26.4 27.4 19.5 66 4.5 SE 13 22 7 12 - - 0.0
24/04:00pm 26.0 27.0 19.4 67 4.3 SSE 13 24 7 13 - - 0.0
24/03:30pm 26.8 27.2 18.9 62 5.1 SE 15 22 8 12 - - 0.0
24/03:00pm 28.5 27.8 18.3 54 6.5 SE 19 33 10 18 - - 0.0

Other formats

Comma delimited format used in spreadsheet applications
http://www.bom.gov.au/fwo/IDN60801/IDN60801.94775.axf

JavaScript Object Notation format (JSON) in row-major order
http://www.bom.gov.au/fwo/IDN60801/IDN60801.94775.json

Data quality

Most of these data are generated automatically and are frequently updated. Quality checks on data are not normally performed. It is possible for incorrect values to appear. Refer to information at About Latest Weather Observations and please check the disclaimer before using these data.